createdAt,value
2018-06-25T00:00:26.088Z,7.57
2018-06-25T00:02:55.412Z,6.47
2018-06-25T00:05:24.715Z,5.10
2018-06-25T00:07:53.974Z,5.90
2018-06-25T00:10:23.267Z,8.57
2018-06-25T00:12:52.504Z,8.97
2018-06-25T00:15:21.774Z,6.37
2018-06-25T00:17:51.139Z,6.17
2018-06-25T00:20:20.377Z,5.27
2018-06-25T00:22:49.816Z,6.67
2018-06-25T00:25:19.093Z,8.23
2018-06-25T00:27:48.350Z,6.40
2018-06-25T00:30:17.790Z,7.27
2018-06-25T00:32:47.205Z,6.50
2018-06-25T00:35:16.622Z,7.70
2018-06-25T00:37:45.935Z,6.87
2018-06-25T00:40:15.262Z,5.70
2018-06-25T00:42:44.973Z,6.03
2018-06-25T00:45:14.291Z,7.30
2018-06-25T00:47:43.612Z,6.07
2018-06-25T00:50:12.948Z,6.93
2018-06-25T00:52:42.248Z,6.40
2018-06-25T00:55:11.680Z,6.93
2018-06-25T00:57:41.019Z,7.60
2018-06-25T01:00:10.382Z,7.30
2018-06-25T01:02:39.396Z,6.90
2018-06-25T01:05:08.725Z,6.77
2018-06-25T01:07:37.960Z,9.23
2018-06-25T01:10:07.323Z,7.30
2018-06-25T01:12:36.663Z,9.03
2018-06-25T01:15:06.106Z,8.73
2018-06-25T01:17:35.382Z,6.70
2018-06-25T01:20:04.679Z,6.50
2018-06-25T01:22:33.961Z,9.03
2018-06-25T01:25:03.325Z,11.50
2018-06-25T01:27:32.701Z,7.80
2018-06-25T01:30:01.988Z,11.63
2018-06-25T01:32:31.377Z,7.97
2018-06-25T01:35:00.794Z,8.77
2018-06-25T01:37:30.074Z,8.87
2018-06-25T01:39:59.382Z,8.90
2018-06-25T01:42:28.731Z,9.10
2018-06-25T01:44:58.050Z,10.67
2018-06-25T01:47:27.361Z,12.30
2018-06-25T01:49:56.634Z,9.20
2018-06-25T01:52:25.890Z,9.43
2018-06-25T01:54:55.033Z,10.70
2018-06-25T01:57:24.280Z,7.63
2018-06-25T01:59:53.547Z,9.03
2018-06-25T02:02:22.947Z,10.43
2018-06-25T02:04:52.336Z,11.97
2018-06-25T02:07:21.593Z,9.50
2018-06-25T02:09:51.004Z,12.50
2018-06-25T02:12:20.307Z,8.27
2018-06-25T02:14:49.594Z,8.77
2018-06-25T02:17:18.901Z,10.93
2018-06-25T02:19:48.353Z,9.27
2018-06-25T02:22:17.410Z,9.43
2018-06-25T02:24:46.689Z,8.90
2018-06-25T02:27:16.039Z,11.87
2018-06-25T02:29:45.357Z,12.73
2018-06-25T02:32:14.815Z,12.87
2018-06-25T02:34:44.126Z,11.77
2018-06-25T02:37:13.453Z,9.57
2018-06-25T02:39:43.463Z,11.97
2018-06-25T02:42:12.800Z,11.70
2018-06-25T02:44:42.094Z,11.43
2018-06-25T02:47:11.174Z,12.50
2018-06-25T02:49:40.586Z,12.23
2018-06-25T02:52:09.851Z,16.13
2018-06-25T02:54:38.975Z,13.13
2018-06-25T02:57:08.378Z,10.87
2018-06-25T02:59:37.409Z,12.40
2018-06-25T03:02:06.780Z,16.47
2018-06-25T03:04:36.121Z,16.07
2018-06-25T03:07:05.432Z,15.83
2018-06-25T03:09:34.850Z,12.23
2018-06-25T03:12:05.197Z,13.63
2018-06-25T03:14:34.493Z,15.97
2018-06-25T03:17:03.818Z,14.43
2018-06-25T03:19:33.159Z,15.70
2018-06-25T03:22:02.478Z,13.93
2018-06-25T03:24:31.901Z,15.77
2018-06-25T03:27:01.715Z,13.53
2018-06-25T03:29:31.155Z,16.87
2018-06-25T03:32:00.419Z,16.17
2018-06-25T03:34:29.927Z,13.33
2018-06-25T03:36:59.250Z,15.53
2018-06-25T03:39:28.671Z,13.10
2018-06-25T03:41:57.946Z,10.33
2018-06-25T03:44:27.239Z,11.10
2018-06-25T03:46:56.617Z,12.43
2018-06-25T03:49:26.003Z,15.03
2018-06-25T03:51:55.356Z,10.93
2018-06-25T03:54:24.666Z,11.03
2018-06-25T03:56:54.028Z,10.97
2018-06-25T03:59:23.299Z,10.70
2018-06-25T04:01:52.807Z,11.90
2018-06-25T04:04:22.262Z,13.07
2018-06-25T04:06:51.640Z,12.90
2018-06-25T04:09:20.926Z,14.07
2018-06-25T04:11:50.194Z,13.53
2018-06-25T04:14:19.586Z,13.97
2018-06-25T04:16:48.873Z,12.13
2018-06-25T04:19:18.192Z,11.20
2018-06-25T04:21:48.537Z,11.27
2018-06-25T04:24:17.881Z,11.97
2018-06-25T04:26:47.315Z,9.37
2018-06-25T04:29:16.694Z,10.27
2018-06-25T04:31:45.911Z,12.37
2018-06-25T04:34:15.384Z,14.40
2018-06-25T04:36:44.860Z,13.43
2018-06-25T04:39:14.213Z,12.03
2018-06-25T04:41:43.567Z,13.13
2018-06-25T04:44:12.910Z,11.97
2018-06-25T04:46:42.321Z,14.07
2018-06-25T04:49:11.602Z,13.00
2018-06-25T04:51:40.935Z,13.10
2018-06-25T04:54:10.208Z,15.27
2018-06-25T04:56:39.553Z,13.53
2018-06-25T04:59:15.560Z,14.23
2018-06-25T05:01:45.175Z,12.17
2018-06-25T05:04:14.477Z,11.47
2018-06-25T05:06:43.867Z,10.43
2018-06-25T05:09:13.149Z,11.07
2018-06-25T05:11:42.499Z,12.07
2018-06-25T05:14:12.265Z,9.40
2018-06-25T05:16:41.579Z,12.00
2018-06-25T05:19:11.084Z,11.13
2018-06-25T05:21:40.403Z,12.73
2018-06-25T05:24:09.387Z,11.07
2018-06-25T05:26:38.703Z,13.03
2018-06-25T05:29:07.990Z,10.87
2018-06-25T05:31:37.444Z,10.63
2018-06-25T05:34:06.883Z,13.97
2018-06-25T05:36:36.168Z,12.03
2018-06-25T05:39:09.855Z,12.53
2018-06-25T05:41:39.205Z,15.07
2018-06-25T05:44:08.522Z,13.47
2018-06-25T05:46:37.813Z,13.77
2018-06-25T05:49:07.296Z,16.50
2018-06-25T05:51:36.684Z,13.27
2018-06-25T05:54:05.968Z,13.73
2018-06-25T05:56:35.329Z,14.63
2018-06-25T05:59:04.678Z,13.73
2018-06-25T06:01:34.055Z,13.77
2018-06-25T06:04:03.464Z,14.37
2018-06-25T06:06:32.848Z,13.07
2018-06-25T06:09:02.258Z,15.13
2018-06-25T06:11:31.609Z,14.57
2018-06-25T06:14:00.792Z,15.87
2018-06-25T06:16:30.022Z,17.13
2018-06-25T06:18:59.413Z,17.43
2018-06-25T06:21:28.709Z,19.53
2018-06-25T06:23:58.001Z,17.67
2018-06-25T06:26:27.399Z,17.70
2018-06-25T06:28:56.604Z,18.27
2018-06-25T06:31:25.622Z,17.63
2018-06-25T06:33:54.993Z,18.20
2018-06-25T06:36:24.254Z,18.17
2018-06-25T06:38:57.557Z,20.30
2018-06-25T06:41:26.880Z,23.27
2018-06-25T06:43:56.183Z,22.03
2018-06-25T06:46:25.439Z,22.67
2018-06-25T06:48:54.792Z,23.27
2018-06-25T06:51:24.091Z,24.30
2018-06-25T06:53:53.373Z,21.50
2018-06-25T06:56:22.650Z,21.00
2018-06-25T06:58:51.922Z,20.53
2018-06-25T07:01:21.232Z,19.30
2018-06-25T07:03:50.591Z,20.37
2018-06-25T07:06:20.132Z,22.00
2018-06-25T07:08:49.561Z,21.47
2018-06-25T07:11:18.861Z,24.27
2018-06-25T07:13:48.263Z,21.33
2018-06-25T07:16:17.683Z,17.90
2018-06-25T07:18:47.206Z,20.07
2018-06-25T07:21:16.713Z,18.63
2018-06-25T07:23:45.771Z,18.50
2018-06-25T07:26:21.086Z,18.73
2018-06-25T07:28:50.221Z,16.87
2018-06-25T07:31:19.478Z,16.63
2018-06-25T07:33:48.554Z,18.13
2018-06-25T07:36:17.996Z,16.47
2018-06-25T07:38:47.506Z,17.87
2018-06-25T07:41:18.018Z,14.23
2018-06-25T07:43:47.302Z,15.97
2018-06-25T07:46:16.358Z,17.80
2018-06-25T07:48:45.845Z,18.97
2018-06-25T07:51:15.415Z,22.27
2018-06-25T07:53:44.818Z,21.70
2018-06-25T07:56:15.373Z,21.37
2018-06-25T07:58:44.729Z,19.47
2018-06-25T08:01:14.027Z,24.07
2018-06-25T08:03:43.505Z,23.97
2018-06-25T08:06:12.775Z,17.70
2018-06-25T08:08:42.083Z,19.20
2018-06-25T08:11:11.407Z,20.03
2018-06-25T08:13:40.731Z,18.00
2018-06-25T08:16:10.027Z,17.57
2018-06-25T08:18:39.321Z,16.53
2018-06-25T08:21:08.802Z,22.63
2018-06-25T08:23:38.482Z,15.80
2018-06-25T08:26:07.805Z,15.57
2018-06-25T08:28:37.121Z,13.70
2018-06-25T08:31:06.412Z,13.70
2018-06-25T08:33:35.853Z,13.13
2018-06-25T08:36:05.270Z,12.37
2018-06-25T08:38:34.795Z,11.63
2018-06-25T08:41:04.159Z,10.87
2018-06-25T08:43:33.388Z,8.77
2018-06-25T08:46:02.687Z,11.57
2018-06-25T08:48:32.048Z,10.83
2018-06-25T08:51:02.284Z,8.70
2018-06-25T08:53:31.547Z,11.80
2018-06-25T08:56:01.203Z,9.57
2018-06-25T08:58:30.639Z,10.10
2018-06-25T09:00:59.887Z,8.43
2018-06-25T09:03:29.160Z,9.53
2018-06-25T09:05:58.416Z,8.53
2018-06-25T09:08:27.707Z,10.37
2018-06-25T09:10:56.994Z,9.73
2018-06-25T09:13:26.268Z,11.47
2018-06-25T09:15:55.648Z,18.17
2018-06-25T09:18:25.038Z,16.53
2018-06-25T09:20:54.349Z,17.83
2018-06-25T09:23:23.682Z,16.70
2018-06-25T09:25:52.981Z,17.83
2018-06-25T09:28:22.314Z,17.07
2018-06-25T09:30:51.729Z,17.80
2018-06-25T09:33:20.865Z,19.10
2018-06-25T09:35:50.283Z,19.27
2018-06-25T09:38:19.647Z,19.43
2018-06-25T09:40:49.015Z,20.00
2018-06-25T09:46:15.128Z,23.53
2018-06-25T09:48:44.440Z,24.90
2018-06-25T09:51:13.903Z,23.30
2018-06-25T09:53:43.225Z,25.27
2018-06-25T09:56:12.518Z,27.30
2018-06-25T09:58:41.803Z,23.37
2018-06-25T10:01:12.118Z,20.83
2018-06-25T10:03:42.412Z,22.53
2018-06-25T10:06:11.788Z,20.83
2018-06-25T10:08:41.096Z,20.50
2018-06-25T10:11:10.368Z,21.43
2018-06-25T10:13:39.774Z,20.67
2018-06-25T10:16:09.073Z,21.27
2018-06-25T10:18:38.343Z,19.47
2018-06-25T10:21:08.155Z,22.10
2018-06-25T10:23:37.487Z,20.73
2018-06-25T10:26:06.891Z,20.50
2018-06-25T10:28:36.361Z,21.50
2018-06-25T10:31:05.801Z,21.30
2018-06-25T10:33:35.115Z,19.13
2018-06-25T10:36:04.379Z,16.13
2018-06-25T10:38:33.739Z,14.93
2018-06-25T10:41:04.606Z,13.53
2018-06-25T10:43:33.962Z,10.93
2018-06-25T10:46:03.212Z,10.90
2018-06-25T10:48:32.478Z,9.60
2018-06-25T10:51:02.159Z,10.87
2018-06-25T10:53:31.452Z,11.43
2018-06-25T10:56:00.577Z,9.37
2018-06-25T10:58:29.892Z,9.57
2018-06-25T11:00:59.149Z,10.80
2018-06-25T11:03:28.374Z,9.77
2018-06-25T11:05:57.754Z,10.93
2018-06-25T11:08:27.072Z,9.67
2018-06-25T11:10:56.358Z,9.17
2018-06-25T11:13:25.686Z,10.67
2018-06-25T11:15:54.959Z,9.37
2018-06-25T11:18:24.305Z,7.43
2018-06-25T11:20:53.567Z,9.93
2018-06-25T11:23:22.931Z,10.13
2018-06-25T11:25:52.248Z,10.33
2018-06-25T11:28:21.561Z,7.10
2018-06-25T11:30:50.876Z,7.70
2018-06-25T11:33:19.998Z,6.57
2018-06-25T11:35:51.381Z,9.00
2018-06-25T11:38:20.763Z,6.53
2018-06-25T11:40:50.056Z,7.97
2018-06-25T11:43:19.383Z,6.33
2018-06-25T11:45:48.755Z,8.03
2018-06-25T11:48:18.092Z,5.10
2018-06-25T11:50:47.468Z,9.80
2018-06-25T11:53:16.881Z,6.90
2018-06-25T11:55:46.301Z,5.97
2018-06-25T11:58:15.685Z,7.63
2018-06-25T12:00:45.602Z,8.77
2018-06-25T12:03:15.111Z,7.77
2018-06-25T12:05:44.234Z,5.60
2018-06-25T12:08:13.506Z,6.03
2018-06-25T12:10:42.812Z,9.47
2018-06-25T12:13:11.789Z,5.97
2018-06-25T12:15:41.202Z,9.93
2018-06-25T12:18:10.165Z,8.23
2018-06-25T12:20:39.526Z,5.53
2018-06-25T12:23:08.891Z,7.80
2018-06-25T12:25:38.142Z,6.97
2018-06-25T12:28:07.475Z,6.93
2018-06-25T12:30:36.729Z,6.77
2018-06-25T12:33:06.679Z,7.57
2018-06-25T12:35:36.056Z,6.47
2018-06-25T12:38:05.422Z,5.90
2018-06-25T12:40:34.515Z,5.40
2018-06-25T12:43:03.898Z,4.10
2018-06-25T12:45:33.158Z,6.90
2018-06-25T12:48:02.462Z,5.93
2018-06-25T12:50:31.918Z,3.93
2018-06-25T12:53:01.167Z,5.23
2018-06-25T12:55:30.735Z,4.93
2018-06-25T12:58:00.070Z,5.37
2018-06-25T13:00:29.377Z,5.83
2018-06-25T13:02:58.618Z,4.90
2018-06-25T13:05:27.922Z,4.40
2018-06-25T13:07:57.180Z,4.63
2018-06-25T13:10:26.535Z,4.17
2018-06-25T13:12:56.218Z,4.63
2018-06-25T13:15:25.533Z,4.47
2018-06-25T13:17:54.851Z,3.83
2018-06-25T13:20:24.125Z,4.03
2018-06-25T13:22:53.413Z,3.47
2018-06-25T13:25:22.694Z,3.47
2018-06-25T13:27:51.989Z,3.67
2018-06-25T13:30:21.357Z,4.10
2018-06-25T13:32:51.495Z,6.87
2018-06-25T13:35:20.778Z,4.37
2018-06-25T13:37:50.118Z,4.03
2018-06-25T13:40:19.436Z,5.17
2018-06-25T13:42:48.897Z,4.87
2018-06-25T13:45:18.207Z,3.27
2018-06-25T13:47:47.529Z,5.53
2018-06-25T13:50:16.902Z,4.47
2018-06-25T13:52:46.268Z,4.70
2018-06-25T13:55:15.714Z,5.63
2018-06-25T13:57:45.055Z,5.27
2018-06-25T14:00:14.508Z,3.57
2018-06-25T14:02:43.775Z,3.13
2018-06-25T14:05:13.076Z,4.03
2018-06-25T14:07:42.144Z,5.70
2018-06-25T14:10:11.536Z,5.10
2018-06-25T14:12:40.907Z,4.50
2018-06-25T14:15:10.287Z,4.10
2018-06-25T14:17:39.566Z,6.27
2018-06-25T14:20:09.947Z,5.23
2018-06-25T14:22:39.418Z,5.57
2018-06-25T14:28:11.392Z,6.63
2018-06-25T14:30:45.907Z,5.30
2018-06-25T14:33:15.272Z,4.47
2018-06-25T14:35:44.426Z,5.57
2018-06-25T14:38:16.639Z,5.27
2018-06-25T14:40:46.118Z,6.53
2018-06-25T14:43:15.508Z,4.37
2018-06-25T14:45:44.788Z,6.23
2018-06-25T14:48:14.091Z,6.30
2018-06-25T14:50:43.439Z,5.43
2018-06-25T14:53:12.794Z,4.97
2018-06-25T14:55:42.096Z,6.97
2018-06-25T14:58:11.414Z,4.40
2018-06-25T15:00:40.828Z,7.80
2018-06-25T15:03:10.137Z,6.47
2018-06-25T15:05:39.429Z,5.53
2018-06-25T15:08:08.689Z,8.37
2018-06-25T15:10:38.082Z,5.50
2018-06-25T15:13:07.448Z,5.33
2018-06-25T15:15:36.667Z,5.33
2018-06-25T15:18:07.972Z,6.53
2018-06-25T15:20:37.305Z,5.83
2018-06-25T15:23:06.623Z,6.57
2018-06-25T15:25:35.932Z,6.80
2018-06-25T15:28:05.338Z,4.63
2018-06-25T15:30:34.597Z,5.63
2018-06-25T15:33:03.934Z,8.00
2018-06-25T15:35:33.209Z,6.47
2018-06-25T15:38:02.530Z,4.90
2018-06-25T15:40:31.852Z,5.53
2018-06-25T15:43:01.329Z,7.70
2018-06-25T15:45:30.618Z,5.47
2018-06-25T15:47:59.959Z,3.77
2018-06-25T15:50:29.208Z,3.50
2018-06-25T15:52:58.550Z,7.83
2018-06-25T15:55:27.801Z,4.03
2018-06-25T15:58:03.311Z,4.43
2018-06-25T16:00:32.986Z,4.70
2018-06-25T16:03:02.281Z,4.67
2018-06-25T16:05:31.620Z,12.83
2018-06-25T16:08:00.923Z,5.17
2018-06-25T16:10:32.155Z,3.57
2018-06-25T16:13:01.509Z,2.93
2018-06-25T16:15:30.752Z,5.03
2018-06-25T16:18:00.003Z,5.13
2018-06-25T16:20:29.270Z,4.33
2018-06-25T16:22:58.570Z,6.23
2018-06-25T16:25:27.884Z,6.20
2018-06-25T16:27:57.391Z,4.83
2018-06-25T16:30:26.772Z,2.93
2018-06-25T16:32:56.091Z,4.33
2018-06-25T16:35:25.439Z,3.80
2018-06-25T16:37:54.748Z,4.63
2018-06-25T16:40:24.024Z,4.20
2018-06-25T16:42:53.455Z,3.27
2018-06-25T16:45:22.766Z,5.73
2018-06-25T16:47:52.138Z,3.20
2018-06-25T16:50:21.513Z,3.63
2018-06-25T16:52:50.635Z,4.97
2018-06-25T16:55:19.962Z,4.30
2018-06-25T16:57:49.323Z,4.87
2018-06-25T17:00:18.786Z,3.77
2018-06-25T17:02:48.159Z,5.20
2018-06-25T17:05:17.545Z,4.00
2018-06-25T17:07:46.934Z,3.67
2018-06-25T17:10:16.432Z,4.33
2018-06-25T17:12:45.665Z,4.57
2018-06-25T17:15:14.958Z,3.20
2018-06-25T17:17:44.296Z,3.77
2018-06-25T17:20:13.727Z,3.47
2018-06-25T17:22:43.029Z,2.97
2018-06-25T17:25:12.344Z,2.80
2018-06-25T17:27:41.614Z,4.10
2018-06-25T17:30:10.882Z,4.00
2018-06-25T17:32:40.251Z,3.47
2018-06-25T17:35:09.525Z,6.07
2018-06-25T17:37:38.916Z,5.37
2018-06-25T17:40:08.192Z,3.97
2018-06-25T17:42:37.495Z,2.83
2018-06-25T17:45:07.059Z,5.53
2018-06-25T17:47:36.686Z,4.40
2018-06-25T17:50:06.116Z,6.57
2018-06-25T17:52:35.421Z,3.13
2018-06-25T17:55:04.783Z,5.93
2018-06-25T17:57:34.101Z,3.67
2018-06-25T18:00:03.530Z,2.27
2018-06-25T18:02:32.880Z,3.27
2018-06-25T18:05:02.300Z,3.97
2018-06-25T18:07:31.582Z,3.87
2018-06-25T18:10:00.902Z,3.73
2018-06-25T18:12:30.217Z,4.40
2018-06-25T18:14:59.521Z,3.67
2018-06-25T18:17:28.806Z,3.37
2018-06-25T18:19:58.103Z,9.97
2018-06-25T18:22:27.397Z,4.43
2018-06-25T18:24:56.711Z,3.13
2018-06-25T18:27:25.976Z,3.00
2018-06-25T18:29:55.307Z,3.13
2018-06-25T18:32:24.552Z,2.73
2018-06-25T18:34:53.850Z,3.33
2018-06-25T18:37:23.280Z,4.77
2018-06-25T18:39:52.311Z,4.00
2018-06-25T18:42:21.671Z,4.50
2018-06-25T18:44:51.026Z,2.27
2018-06-25T18:47:20.435Z,5.07
2018-06-25T18:49:49.470Z,2.87
2018-06-25T18:52:18.787Z,3.20
2018-06-25T18:54:48.094Z,4.80
2018-06-25T18:57:17.481Z,3.97
2018-06-25T18:59:46.802Z,3.40
2018-06-25T19:02:16.126Z,4.27
2018-06-25T19:04:45.847Z,4.33
2018-06-25T19:07:15.265Z,6.20
2018-06-25T19:09:44.574Z,3.43
2018-06-25T19:12:13.867Z,4.60
2018-06-25T19:14:43.202Z,2.60
2018-06-25T19:17:12.519Z,3.77
2018-06-25T19:19:41.875Z,2.27
2018-06-25T19:22:11.198Z,5.03
2018-06-25T19:24:40.500Z,2.87
2018-06-25T19:27:09.878Z,3.30
2018-06-25T19:29:38.915Z,3.80
2018-06-25T19:32:09.225Z,4.60
2018-06-25T19:34:38.566Z,3.20
2018-06-25T19:37:07.861Z,2.20
2018-06-25T19:39:37.134Z,4.00
2018-06-25T19:42:09.665Z,2.37
2018-06-25T19:44:39.174Z,2.87
2018-06-25T19:47:08.518Z,2.40
2018-06-25T19:49:37.778Z,2.97
2018-06-25T19:52:07.164Z,2.57
2018-06-25T19:54:36.553Z,5.60
2018-06-25T19:57:06.010Z,3.83
2018-06-25T19:59:35.467Z,3.23
2018-06-25T20:02:04.888Z,4.83
2018-06-25T20:04:34.301Z,3.00
2018-06-25T20:07:04.912Z,2.60
2018-06-25T20:09:34.279Z,2.63
2018-06-25T20:12:03.577Z,5.53
2018-06-25T20:14:33.035Z,4.40
2018-06-25T20:17:02.275Z,3.10
2018-06-25T20:19:31.545Z,2.80
2018-06-25T20:22:00.876Z,4.37
2018-06-25T20:24:30.129Z,6.57
2018-06-25T20:26:59.474Z,5.80
2018-06-25T20:29:28.757Z,4.37
2018-06-25T20:31:58.118Z,4.80
2018-06-25T20:34:27.372Z,3.57
2018-06-25T20:36:56.665Z,3.83
2018-06-25T20:39:26.040Z,3.70
2018-06-25T20:41:55.340Z,4.07
2018-06-25T20:44:24.604Z,3.57
2018-06-25T20:46:53.981Z,3.63
2018-06-25T20:49:23.242Z,4.13
2018-06-25T20:51:52.547Z,4.37
2018-06-25T20:54:21.882Z,4.90
2018-06-25T20:56:51.299Z,6.07
2018-06-25T20:59:20.523Z,3.60
2018-06-25T21:01:49.914Z,4.37
2018-06-25T21:04:19.295Z,5.53
2018-06-25T21:06:48.739Z,7.90
2018-06-25T21:09:18.176Z,4.93
2018-06-25T21:11:47.586Z,4.83
2018-06-25T21:14:17.053Z,5.27
2018-06-25T21:16:46.485Z,5.57
2018-06-25T21:19:15.995Z,4.27
2018-06-25T21:21:45.420Z,7.07
2018-06-25T21:24:14.829Z,4.43
2018-06-25T21:26:44.556Z,4.87
2018-06-25T21:29:13.864Z,7.03
2018-06-25T21:31:43.136Z,5.40
2018-06-25T21:34:12.447Z,4.03
2018-06-25T21:36:41.717Z,5.87
2018-06-25T21:39:10.952Z,6.00
2018-06-25T21:41:40.343Z,5.63
2018-06-25T21:44:09.635Z,6.17
2018-06-25T21:46:38.960Z,6.60
2018-06-25T21:49:08.249Z,4.30
2018-06-25T21:51:37.566Z,6.07
2018-06-25T21:54:06.840Z,6.13
2018-06-25T21:56:36.225Z,6.97
2018-06-25T21:59:05.634Z,5.93
2018-06-25T22:01:35.088Z,6.17
2018-06-25T22:04:04.446Z,5.90
2018-06-25T22:06:33.759Z,7.97
2018-06-25T22:09:03.137Z,7.80
2018-06-25T22:11:32.464Z,6.00
2018-06-25T22:14:01.842Z,6.73
2018-06-25T22:16:31.164Z,8.50
2018-06-25T22:19:00.404Z,6.33
2018-06-25T22:21:30.833Z,6.37
2018-06-25T22:24:06.736Z,7.00
2018-06-25T22:26:36.114Z,5.97
2018-06-25T22:29:05.817Z,7.63
2018-06-25T22:31:35.207Z,8.83
2018-06-25T22:34:04.662Z,7.67
2018-06-25T22:36:34.039Z,9.03
2018-06-25T22:39:03.704Z,5.73
2018-06-25T22:41:33.101Z,5.57
2018-06-25T22:44:12.731Z,7.23
2018-06-25T22:46:43.124Z,7.50
2018-06-25T22:49:12.477Z,6.53
2018-06-25T22:51:41.728Z,6.63
2018-06-25T22:54:10.964Z,7.30
2018-06-25T22:56:40.254Z,9.30
2018-06-25T22:59:09.570Z,7.87
2018-06-25T23:01:38.815Z,11.67
2018-06-25T23:04:08.082Z,8.93
2018-06-25T23:06:37.411Z,5.77
2018-06-25T23:09:09.941Z,7.63
2018-06-25T23:11:39.198Z,8.47
2018-06-25T23:14:08.465Z,9.10
2018-06-25T23:16:37.814Z,8.43
2018-06-25T23:19:07.114Z,9.70
2018-06-25T23:21:36.450Z,9.47
2018-06-25T23:24:05.750Z,9.30
2018-06-25T23:26:35.111Z,7.47
2018-06-25T23:29:04.377Z,7.63
2018-06-25T23:31:33.724Z,8.97
2018-06-25T23:34:02.972Z,8.00
2018-06-25T23:36:32.431Z,11.70
2018-06-25T23:39:01.780Z,9.90
2018-06-25T23:41:31.033Z,8.40
2018-06-25T23:44:00.271Z,9.70
2018-06-25T23:46:29.727Z,9.07
2018-06-25T23:48:58.723Z,7.37
2018-06-25T23:51:28.022Z,9.07
2018-06-25T23:53:57.324Z,10.70
2018-06-25T23:56:26.642Z,10.20
2018-06-25T23:58:55.875Z,12.93
